sensor_id;sensor_type;location;lat;lon;timestamp;P1;durP1;ratioP1;P2;durP2;ratioP2
11988;SDS011;6054;50.966;7.094;2023-04-06T00:00:22;5.60;;;4.15;;
11988;SDS011;6054;50.966;7.094;2023-04-06T00:02:50;6.05;;;4.20;;
11988;SDS011;6054;50.966;7.094;2023-04-06T00:05:17;6.50;;;4.10;;
11988;SDS011;6054;50.966;7.094;2023-04-06T00:07:44;7.80;;;4.13;;
11988;SDS011;6054;50.966;7.094;2023-04-06T00:10:11;6.57;;;4.20;;
11988;SDS011;6054;50.966;7.094;2023-04-06T00:12:38;7.50;;;5.00;;
11988;SDS011;6054;50.966;7.094;2023-04-06T00:15:05;6.03;;;4.75;;
11988;SDS011;6054;50.966;7.094;2023-04-06T00:17:33;6.67;;;5.07;;
11988;SDS011;6054;50.966;7.094;2023-04-06T00:20:01;7.40;;;5.03;;
11988;SDS011;6054;50.966;7.094;2023-04-06T00:22:29;7.47;;;5.67;;
11988;SDS011;6054;50.966;7.094;2023-04-06T00:24:56;8.20;;;5.47;;
11988;SDS011;6054;50.966;7.094;2023-04-06T00:27:23;6.85;;;4.93;;
11988;SDS011;6054;50.966;7.094;2023-04-06T00:29:50;5.97;;;5.22;;
11988;SDS011;6054;50.966;7.094;2023-04-06T00:32:17;9.32;;;5.72;;
11988;SDS011;6054;50.966;7.094;2023-04-06T00:34:43;9.23;;;5.60;;
11988;SDS011;6054;50.966;7.094;2023-04-06T00:37:12;6.95;;;5.13;;
11988;SDS011;6054;50.966;7.094;2023-04-06T00:39:38;8.97;;;5.40;;
11988;SDS011;6054;50.966;7.094;2023-04-06T00:42:07;9.30;;;5.23;;
11988;SDS011;6054;50.966;7.094;2023-04-06T00:44:37;8.57;;;5.63;;
11988;SDS011;6054;50.966;7.094;2023-04-06T00:47:04;6.83;;;5.97;;
11988;SDS011;6054;50.966;7.094;2023-04-06T00:49:31;10.15;;;5.97;;
11988;SDS011;6054;50.966;7.094;2023-04-06T00:51:58;6.87;;;5.40;;
11988;SDS011;6054;50.966;7.094;2023-04-06T00:54:28;8.63;;;6.17;;
11988;SDS011;6054;50.966;7.094;2023-04-06T00:56:55;9.27;;;6.40;;
11988;SDS011;6054;50.966;7.094;2023-04-06T00:59:22;6.67;;;5.83;;
11988;SDS011;6054;50.966;7.094;2023-04-06T01:01:49;7.93;;;6.00;;
11988;SDS011;6054;50.966;7.094;2023-04-06T01:04:16;8.83;;;6.57;;
11988;SDS011;6054;50.966;7.094;2023-04-06T01:06:43;9.87;;;7.90;;
11988;SDS011;6054;50.966;7.094;2023-04-06T01:09:10;7.77;;;6.30;;
11988;SDS011;6054;50.966;7.094;2023-04-06T01:11:38;7.63;;;6.17;;
11988;SDS011;6054;50.966;7.094;2023-04-06T01:14:05;9.10;;;6.53;;
11988;SDS011;6054;50.966;7.094;2023-04-06T01:16:32;7.33;;;6.23;;
11988;SDS011;6054;50.966;7.094;2023-04-06T01:19:00;9.70;;;6.90;;
11988;SDS011;6054;50.966;7.094;2023-04-06T01:21:27;8.80;;;6.53;;
11988;SDS011;6054;50.966;7.094;2023-04-06T01:23:55;8.60;;;6.10;;
11988;SDS011;6054;50.966;7.094;2023-04-06T01:26:22;12.17;;;7.17;;
11988;SDS011;6054;50.966;7.094;2023-04-06T01:28:49;8.60;;;6.57;;
11988;SDS011;6054;50.966;7.094;2023-04-06T01:31:15;8.20;;;6.50;;
11988;SDS011;6054;50.966;7.094;2023-04-06T01:33:42;9.73;;;6.77;;
11988;SDS011;6054;50.966;7.094;2023-04-06T01:36:10;10.20;;;7.00;;
11988;SDS011;6054;50.966;7.094;2023-04-06T01:38:37;9.67;;;6.57;;
11988;SDS011;6054;50.966;7.094;2023-04-06T01:41:05;6.90;;;6.20;;
11988;SDS011;6054;50.966;7.094;2023-04-06T01:43:32;9.50;;;6.40;;
11988;SDS011;6054;50.966;7.094;2023-04-06T01:45:59;8.07;;;6.20;;
11988;SDS011;6054;50.966;7.094;2023-04-06T01:48:27;7.30;;;5.63;;
11988;SDS011;6054;50.966;7.094;2023-04-06T01:50:53;10.23;;;6.63;;
11988;SDS011;6054;50.966;7.094;2023-04-06T01:53:20;8.57;;;6.10;;
11988;SDS011;6054;50.966;7.094;2023-04-06T01:55:47;9.47;;;6.20;;
11988;SDS011;6054;50.966;7.094;2023-04-06T01:58:16;8.27;;;6.00;;
11988;SDS011;6054;50.966;7.094;2023-04-06T02:00:42;7.10;;;6.03;;
11988;SDS011;6054;50.966;7.094;2023-04-06T02:03:09;9.03;;;6.30;;
11988;SDS011;6054;50.966;7.094;2023-04-06T02:05:36;10.83;;;6.43;;
11988;SDS011;6054;50.966;7.094;2023-04-06T02:08:03;12.57;;;8.27;;
11988;SDS011;6054;50.966;7.094;2023-04-06T02:10:31;8.17;;;6.43;;
11988;SDS011;6054;50.966;7.094;2023-04-06T02:12:57;6.93;;;5.93;;
11988;SDS011;6054;50.966;7.094;2023-04-06T02:15:26;7.17;;;5.63;;
11988;SDS011;6054;50.966;7.094;2023-04-06T02:17:53;9.27;;;6.67;;
11988;SDS011;6054;50.966;7.094;2023-04-06T02:20:20;8.90;;;6.20;;
11988;SDS011;6054;50.966;7.094;2023-04-06T02:22:47;6.87;;;5.93;;
11988;SDS011;6054;50.966;7.094;2023-04-06T02:25:13;7.63;;;6.20;;
11988;SDS011;6054;50.966;7.094;2023-04-06T02:27:41;7.67;;;6.00;;
11988;SDS011;6054;50.966;7.094;2023-04-06T02:30:08;8.13;;;6.40;;
11988;SDS011;6054;50.966;7.094;2023-04-06T02:32:37;8.20;;;6.60;;
11988;SDS011;6054;50.966;7.094;2023-04-06T02:35:04;8.80;;;6.03;;
11988;SDS011;6054;50.966;7.094;2023-04-06T02:37:31;11.13;;;6.37;;
11988;SDS011;6054;50.966;7.094;2023-04-06T02:39:58;10.57;;;6.47;;
11988;SDS011;6054;50.966;7.094;2023-04-06T02:42:25;9.60;;;6.20;;
11988;SDS011;6054;50.966;7.094;2023-04-06T02:44:52;9.30;;;6.17;;
11988;SDS011;6054;50.966;7.094;2023-04-06T02:47:19;7.67;;;6.03;;
11988;SDS011;6054;50.966;7.094;2023-04-06T02:49:47;8.00;;;6.10;;
11988;SDS011;6054;50.966;7.094;2023-04-06T02:52:14;9.03;;;5.83;;
11988;SDS011;6054;50.966;7.094;2023-04-06T02:54:42;7.93;;;5.97;;
11988;SDS011;6054;50.966;7.094;2023-04-06T02:57:10;6.47;;;5.33;;
11988;SDS011;6054;50.966;7.094;2023-04-06T02:59:37;9.83;;;5.83;;
11988;SDS011;6054;50.966;7.094;2023-04-06T03:02:03;6.77;;;5.70;;
11988;SDS011;6054;50.966;7.094;2023-04-06T03:04:30;7.77;;;6.10;;
11988;SDS011;6054;50.966;7.094;2023-04-06T03:06:58;7.13;;;5.03;;
11988;SDS011;6054;50.966;7.094;2023-04-06T03:09:25;7.20;;;5.33;;
11988;SDS011;6054;50.966;7.094;2023-04-06T03:11:53;7.03;;;5.63;;
11988;SDS011;6054;50.966;7.094;2023-04-06T03:14:20;8.10;;;5.50;;
11988;SDS011;6054;50.966;7.094;2023-04-06T03:16:47;7.20;;;5.30;;
11988;SDS011;6054;50.966;7.094;2023-04-06T03:19:14;6.93;;;5.40;;
11988;SDS011;6054;50.966;7.094;2023-04-06T03:21:41;6.07;;;4.90;;
11988;SDS011;6054;50.966;7.094;2023-04-06T03:24:09;7.77;;;5.13;;
11988;SDS011;6054;50.966;7.094;2023-04-06T03:26:37;7.23;;;5.67;;
11988;SDS011;6054;50.966;7.094;2023-04-06T03:29:04;8.00;;;5.67;;
11988;SDS011;6054;50.966;7.094;2023-04-06T03:31:31;7.60;;;5.40;;
11988;SDS011;6054;50.966;7.094;2023-04-06T03:33:58;8.23;;;5.37;;
11988;SDS011;6054;50.966;7.094;2023-04-06T03:36:25;7.70;;;5.03;;
11988;SDS011;6054;50.966;7.094;2023-04-06T03:38:52;6.47;;;5.17;;
11988;SDS011;6054;50.966;7.094;2023-04-06T03:41:20;6.27;;;5.10;;
11988;SDS011;6054;50.966;7.094;2023-04-06T03:43:47;5.90;;;5.10;;
11988;SDS011;6054;50.966;7.094;2023-04-06T03:46:14;6.23;;;5.13;;
11988;SDS011;6054;50.966;7.094;2023-04-06T03:48:41;7.77;;;5.17;;
11988;SDS011;6054;50.966;7.094;2023-04-06T03:51:08;7.13;;;5.10;;
11988;SDS011;6054;50.966;7.094;2023-04-06T03:53:35;6.70;;;5.37;;
11988;SDS011;6054;50.966;7.094;2023-04-06T03:56:03;6.77;;;5.10;;
11988;SDS011;6054;50.966;7.094;2023-04-06T03:58:31;7.43;;;5.00;;
11988;SDS011;6054;50.966;7.094;2023-04-06T04:00:58;6.43;;;4.83;;
11988;SDS011;6054;50.966;7.094;2023-04-06T04:03:25;8.83;;;4.93;;
11988;SDS011;6054;50.966;7.094;2023-04-06T04:05:52;6.20;;;5.60;;
11988;SDS011;6054;50.966;7.094;2023-04-06T04:08:20;5.33;;;4.73;;
11988;SDS011;6054;50.966;7.094;2023-04-06T04:10:46;5.93;;;4.97;;
11988;SDS011;6054;50.966;7.094;2023-04-06T04:13:13;8.50;;;5.40;;
11988;SDS011;6054;50.966;7.094;2023-04-06T04:15:42;7.70;;;5.47;;
11988;SDS011;6054;50.966;7.094;2023-04-06T04:18:08;9.43;;;5.57;;
11988;SDS011;6054;50.966;7.094;2023-04-06T04:20:35;8.50;;;5.53;;
11988;SDS011;6054;50.966;7.094;2023-04-06T04:23:02;7.80;;;5.53;;
11988;SDS011;6054;50.966;7.094;2023-04-06T04:25:29;7.17;;;5.80;;
11988;SDS011;6054;50.966;7.094;2023-04-06T04:27:56;6.33;;;5.60;;
11988;SDS011;6054;50.966;7.094;2023-04-06T04:30:23;8.20;;;5.83;;
11988;SDS011;6054;50.966;7.094;2023-04-06T04:32:51;8.10;;;5.57;;
11988;SDS011;6054;50.966;7.094;2023-04-06T04:35:18;8.57;;;5.50;;
11988;SDS011;6054;50.966;7.094;2023-04-06T04:37:45;5.67;;;5.00;;
11988;SDS011;6054;50.966;7.094;2023-04-06T04:40:12;7.17;;;5.87;;
11988;SDS011;6054;50.966;7.094;2023-04-06T04:42:39;6.50;;;5.70;;
11988;SDS011;6054;50.966;7.094;2023-04-06T04:45:06;6.50;;;5.50;;
11988;SDS011;6054;50.966;7.094;2023-04-06T04:47:33;7.57;;;5.87;;
11988;SDS011;6054;50.966;7.094;2023-04-06T04:50:01;7.43;;;5.63;;
11988;SDS011;6054;50.966;7.094;2023-04-06T04:52:28;11.57;;;6.13;;
11988;SDS011;6054;50.966;7.094;2023-04-06T04:54:55;10.37;;;6.03;;
11988;SDS011;6054;50.966;7.094;2023-04-06T04:57:22;9.53;;;5.33;;
11988;SDS011;6054;50.966;7.094;2023-04-06T04:59:48;6.57;;;5.30;;
11988;SDS011;6054;50.966;7.094;2023-04-06T05:02:16;7.00;;;5.00;;
11988;SDS011;6054;50.966;7.094;2023-04-06T05:04:42;6.50;;;5.37;;
11988;SDS011;6054;50.966;7.094;2023-04-06T05:07:11;5.63;;;4.90;;
11988;SDS011;6054;50.966;7.094;2023-04-06T05:09:38;6.40;;;4.90;;
11988;SDS011;6054;50.966;7.094;2023-04-06T05:12:05;7.20;;;4.93;;
11988;SDS011;6054;50.966;7.094;2023-04-06T05:14:32;7.17;;;4.40;;
11988;SDS011;6054;50.966;7.094;2023-04-06T05:16:59;5.63;;;4.53;;
11988;SDS011;6054;50.966;7.094;2023-04-06T05:19:26;6.17;;;5.37;;
11988;SDS011;6054;50.966;7.094;2023-04-06T05:21:53;7.13;;;5.00;;
11988;SDS011;6054;50.966;7.094;2023-04-06T05:24:21;7.63;;;5.63;;
11988;SDS011;6054;50.966;7.094;2023-04-06T05:26:48;6.00;;;5.10;;
11988;SDS011;6054;50.966;7.094;2023-04-06T05:29:15;6.70;;;4.93;;
11988;SDS011;6054;50.966;7.094;2023-04-06T05:31:42;7.07;;;5.17;;
11988;SDS011;6054;50.966;7.094;2023-04-06T05:34:09;6.53;;;5.50;;
11988;SDS011;6054;50.966;7.094;2023-04-06T05:36:37;6.33;;;5.40;;
11988;SDS011;6054;50.966;7.094;2023-04-06T05:39:05;7.60;;;5.43;;
11988;SDS011;6054;50.966;7.094;2023-04-06T05:41:33;10.93;;;5.90;;
11988;SDS011;6054;50.966;7.094;2023-04-06T05:44:00;8.20;;;5.20;;
11988;SDS011;6054;50.966;7.094;2023-04-06T05:46:27;9.20;;;5.27;;
11988;SDS011;6054;50.966;7.094;2023-04-06T05:48:54;12.30;;;5.80;;
11988;SDS011;6054;50.966;7.094;2023-04-06T05:51:21;11.33;;;5.23;;
11988;SDS011;6054;50.966;7.094;2023-04-06T05:53:48;7.07;;;5.47;;
11988;SDS011;6054;50.966;7.094;2023-04-06T05:56:15;6.87;;;5.23;;
11988;SDS011;6054;50.966;7.094;2023-04-06T05:58:43;8.20;;;5.20;;
11988;SDS011;6054;50.966;7.094;2023-04-06T06:01:10;7.70;;;5.20;;
11988;SDS011;6054;50.966;7.094;2023-04-06T06:03:37;8.67;;;5.13;;
11988;SDS011;6054;50.966;7.094;2023-04-06T06:06:04;7.07;;;6.03;;
11988;SDS011;6054;50.966;7.094;2023-04-06T06:08:31;8.47;;;5.37;;
11988;SDS011;6054;50.966;7.094;2023-04-06T06:10:57;11.17;;;5.80;;
11988;SDS011;6054;50.966;7.094;2023-04-06T06:13:25;9.37;;;5.03;;
11988;SDS011;6054;50.966;7.094;2023-04-06T06:15:53;12.10;;;5.97;;
11988;SDS011;6054;50.966;7.094;2023-04-06T06:18:20;12.27;;;6.37;;
11988;SDS011;6054;50.966;7.094;2023-04-06T06:20:47;5.67;;;5.00;;
11988;SDS011;6054;50.966;7.094;2023-04-06T06:23:14;7.43;;;4.77;;
11988;SDS011;6054;50.966;7.094;2023-04-06T06:25:41;6.13;;;5.33;;
11988;SDS011;6054;50.966;7.094;2023-04-06T06:28:08;8.53;;;4.83;;
11988;SDS011;6054;50.966;7.094;2023-04-06T06:30:34;7.50;;;4.60;;
11988;SDS011;6054;50.966;7.094;2023-04-06T06:33:03;7.43;;;4.60;;
11988;SDS011;6054;50.966;7.094;2023-04-06T06:35:29;7.60;;;5.70;;
11988;SDS011;6054;50.966;7.094;2023-04-06T06:37:56;6.07;;;4.55;;
11988;SDS011;6054;50.966;7.094;2023-04-06T06:40:23;4.72;;;4.20;;
11988;SDS011;6054;50.966;7.094;2023-04-06T06:42:51;8.18;;;4.93;;
11988;SDS011;6054;50.966;7.094;2023-04-06T06:45:18;6.73;;;4.50;;
11988;SDS011;6054;50.966;7.094;2023-04-06T06:47:45;6.33;;;4.33;;
11988;SDS011;6054;50.966;7.094;2023-04-06T06:50:13;5.80;;;4.33;;
11988;SDS011;6054;50.966;7.094;2023-04-06T06:52:40;6.03;;;4.88;;
11988;SDS011;6054;50.966;7.094;2023-04-06T06:55:08;9.20;;;5.20;;
11988;SDS011;6054;50.966;7.094;2023-04-06T06:57:35;5.47;;;4.60;;
11988;SDS011;6054;50.966;7.094;2023-04-06T07:00:03;8.63;;;4.78;;
11988;SDS011;6054;50.966;7.094;2023-04-06T07:02:33;7.23;;;5.37;;
11988;SDS011;6054;50.966;7.094;2023-04-06T07:05:00;6.00;;;4.95;;
11988;SDS011;6054;50.966;7.094;2023-04-06T07:07:29;5.25;;;4.38;;
11988;SDS011;6054;50.966;7.094;2023-04-06T07:09:56;10.27;;;5.18;;
11988;SDS011;6054;50.966;7.094;2023-04-06T07:12:23;6.32;;;4.65;;
11988;SDS011;6054;50.966;7.094;2023-04-06T07:14:50;7.20;;;4.55;;
11988;SDS011;6054;50.966;7.094;2023-04-06T07:17:17;6.63;;;4.72;;
11988;SDS011;6054;50.966;7.094;2023-04-06T07:19:44;9.85;;;5.28;;
11988;SDS011;6054;50.966;7.094;2023-04-06T07:22:11;8.82;;;5.10;;
11988;SDS011;6054;50.966;7.094;2023-04-06T07:24:39;6.90;;;5.15;;
11988;SDS011;6054;50.966;7.094;2023-04-06T07:27:06;7.10;;;5.20;;
11988;SDS011;6054;50.966;7.094;2023-04-06T07:29:33;5.70;;;5.00;;
11988;SDS011;6054;50.966;7.094;2023-04-06T07:31:59;7.10;;;5.22;;
11988;SDS011;6054;50.966;7.094;2023-04-06T07:34:26;8.02;;;5.05;;
11988;SDS011;6054;50.966;7.094;2023-04-06T07:36:53;9.70;;;4.93;;
11988;SDS011;6054;50.966;7.094;2023-04-06T07:39:21;7.30;;;4.93;;
11988;SDS011;6054;50.966;7.094;2023-04-06T07:41:49;5.30;;;4.55;;
11988;SDS011;6054;50.966;7.094;2023-04-06T07:44:16;6.68;;;5.35;;
11988;SDS011;6054;50.966;7.094;2023-04-06T07:46:43;8.98;;;5.75;;
11988;SDS011;6054;50.966;7.094;2023-04-06T07:49:10;10.30;;;6.03;;
11988;SDS011;6054;50.966;7.094;2023-04-06T07:51:37;12.13;;;5.72;;
11988;SDS011;6054;50.966;7.094;2023-04-06T07:54:05;7.10;;;5.47;;
11988;SDS011;6054;50.966;7.094;2023-04-06T07:56:32;9.10;;;5.30;;
11988;SDS011;6054;50.966;7.094;2023-04-06T07:59:00;7.43;;;5.63;;
11988;SDS011;6054;50.966;7.094;2023-04-06T08:01:28;7.80;;;5.70;;
11988;SDS011;6054;50.966;7.094;2023-04-06T08:03:55;8.07;;;6.10;;
11988;SDS011;6054;50.966;7.094;2023-04-06T08:06:22;9.75;;;6.43;;
11988;SDS011;6054;50.966;7.094;2023-04-06T08:08:48;6.95;;;5.82;;
11988;SDS011;6054;50.966;7.094;2023-04-06T08:11:15;8.80;;;5.82;;
11988;SDS011;6054;50.966;7.094;2023-04-06T08:13:42;8.32;;;5.88;;
11988;SDS011;6054;50.966;7.094;2023-04-06T08:16:11;9.15;;;5.97;;
11988;SDS011;6054;50.966;7.094;2023-04-06T08:18:38;7.10;;;6.15;;
11988;SDS011;6054;50.966;7.094;2023-04-06T08:21:05;8.70;;;6.30;;
11988;SDS011;6054;50.966;7.094;2023-04-06T08:23:31;12.45;;;6.18;;
11988;SDS011;6054;50.966;7.094;2023-04-06T08:25:59;8.65;;;6.47;;
11988;SDS011;6054;50.966;7.094;2023-04-06T08:28:25;10.00;;;6.32;;
11988;SDS011;6054;50.966;7.094;2023-04-06T08:30:52;8.98;;;6.40;;
11988;SDS011;6054;50.966;7.094;2023-04-06T08:33:21;8.48;;;6.30;;
11988;SDS011;6054;50.966;7.094;2023-04-06T08:35:47;9.45;;;6.25;;
11988;SDS011;6054;50.966;7.094;2023-04-06T08:38:14;7.60;;;6.32;;
11988;SDS011;6054;50.966;7.094;2023-04-06T08:40:41;10.20;;;6.78;;
11988;SDS011;6054;50.966;7.094;2023-04-06T08:43:10;8.20;;;7.05;;
11988;SDS011;6054;50.966;7.094;2023-04-06T08:45:40;12.27;;;6.65;;
11988;SDS011;6054;50.966;7.094;2023-04-06T08:48:08;7.40;;;6.15;;
11988;SDS011;6054;50.966;7.094;2023-04-06T08:50:37;9.52;;;6.47;;
11988;SDS011;6054;50.966;7.094;2023-04-06T08:53:05;7.35;;;6.50;;
11988;SDS011;6054;50.966;7.094;2023-04-06T08:55:33;11.05;;;6.25;;
11988;SDS011;6054;50.966;7.094;2023-04-06T08:58:01;8.68;;;6.80;;
11988;SDS011;6054;50.966;7.094;2023-04-06T09:00:29;10.73;;;6.30;;
11988;SDS011;6054;50.966;7.094;2023-04-06T09:02:56;8.50;;;6.50;;
11988;SDS011;6054;50.966;7.094;2023-04-06T09:05:25;9.35;;;7.18;;
11988;SDS011;6054;50.966;7.094;2023-04-06T09:07:53;9.77;;;6.53;;
11988;SDS011;6054;50.966;7.094;2023-04-06T09:10:21;12.20;;;7.25;;
11988;SDS011;6054;50.966;7.094;2023-04-06T09:12:50;8.93;;;7.38;;
11988;SDS011;6054;50.966;7.094;2023-04-06T09:15:18;13.13;;;7.07;;
11988;SDS011;6054;50.966;7.094;2023-04-06T09:17:45;9.43;;;7.82;;
11988;SDS011;6054;50.966;7.094;2023-04-06T09:20:12;11.88;;;8.02;;
11988;SDS011;6054;50.966;7.094;2023-04-06T09:22:39;12.80;;;8.18;;
11988;SDS011;6054;50.966;7.094;2023-04-06T09:25:09;16.25;;;8.15;;
11988;SDS011;6054;50.966;7.094;2023-04-06T09:27:44;10.45;;;7.85;;
11988;SDS011;6054;50.966;7.094;2023-04-06T09:30:11;11.73;;;8.07;;
11988;SDS011;6054;50.966;7.094;2023-04-06T09:32:44;12.05;;;7.93;;
11988;SDS011;6054;50.966;7.094;2023-04-06T09:35:12;9.80;;;7.38;;
11988;SDS011;6054;50.966;7.094;2023-04-06T09:37:39;13.65;;;8.10;;
11988;SDS011;6054;50.966;7.094;2023-04-06T09:40:06;13.55;;;8.50;;
11988;SDS011;6054;50.966;7.094;2023-04-06T09:42:35;10.38;;;7.95;;
11988;SDS011;6054;50.966;7.094;2023-04-06T09:45:02;10.40;;;8.20;;
11988;SDS011;6054;50.966;7.094;2023-04-06T09:47:30;13.45;;;8.73;;
11988;SDS011;6054;50.966;7.094;2023-04-06T09:49:59;12.30;;;8.30;;
11988;SDS011;6054;50.966;7.094;2023-04-06T09:52:26;11.95;;;8.77;;
11988;SDS011;6054;50.966;7.094;2023-04-06T09:54:59;11.57;;;7.97;;
11988;SDS011;6054;50.966;7.094;2023-04-06T09:57:29;13.70;;;8.60;;
11988;SDS011;6054;50.966;7.094;2023-04-06T10:00:03;11.00;;;8.55;;
11988;SDS011;6054;50.966;7.094;2023-04-06T10:02:37;13.10;;;8.30;;
11988;SDS011;6054;50.966;7.094;2023-04-06T10:05:13;10.68;;;8.00;;
11988;SDS011;6054;50.966;7.094;2023-04-06T10:07:43;13.75;;;7.80;;
11988;SDS011;6054;50.966;7.094;2023-04-06T10:10:11;13.18;;;8.68;;
11988;SDS011;6054;50.966;7.094;2023-04-06T10:12:40;13.55;;;7.97;;
11988;SDS011;6054;50.966;7.094;2023-04-06T10:15:09;12.45;;;9.00;;
11988;SDS011;6054;50.966;7.094;2023-04-06T10:17:37;13.93;;;9.30;;
11988;SDS011;6054;50.966;7.094;2023-04-06T10:20:05;12.95;;;9.27;;
11988;SDS011;6054;50.966;7.094;2023-04-06T10:22:38;13.57;;;8.93;;
11988;SDS011;6054;50.966;7.094;2023-04-06T10:25:10;12.15;;;8.88;;
11988;SDS011;6054;50.966;7.094;2023-04-06T10:27:36;13.15;;;8.75;;
11988;SDS011;6054;50.966;7.094;2023-04-06T10:30:04;10.02;;;8.20;;
11988;SDS011;6054;50.966;7.094;2023-04-06T10:32:34;12.05;;;9.23;;
11988;SDS011;6054;50.966;7.094;2023-04-06T10:35:05;14.13;;;9.50;;
11988;SDS011;6054;50.966;7.094;2023-04-06T10:37:45;13.80;;;9.02;;
11988;SDS011;6054;50.966;7.094;2023-04-06T10:40:17;15.45;;;9.65;;
11988;SDS011;6054;50.966;7.094;2023-04-06T10:42:45;12.98;;;10.23;;
11988;SDS011;6054;50.966;7.094;2023-04-06T10:45:18;12.93;;;9.07;;
11988;SDS011;6054;50.966;7.094;2023-04-06T10:47:47;13.20;;;9.50;;
11988;SDS011;6054;50.966;7.094;2023-04-06T10:50:15;16.75;;;9.05;;
11988;SDS011;6054;50.966;7.094;2023-04-06T10:52:43;12.30;;;9.68;;
11988;SDS011;6054;50.966;7.094;2023-04-06T10:55:10;13.25;;;9.05;;
11988;SDS011;6054;50.966;7.094;2023-04-06T10:57:39;15.32;;;9.13;;
11988;SDS011;6054;50.966;7.094;2023-04-06T11:00:06;16.17;;;8.63;;
11988;SDS011;6054;50.966;7.094;2023-04-06T11:02:34;11.35;;;9.15;;
11988;SDS011;6054;50.966;7.094;2023-04-06T11:05:03;13.70;;;9.30;;
11988;SDS011;6054;50.966;7.094;2023-04-06T11:07:30;13.68;;;10.15;;
11988;SDS011;6054;50.966;7.094;2023-04-06T11:09:57;12.63;;;9.82;;
11988;SDS011;6054;50.966;7.094;2023-04-06T11:12:24;13.15;;;10.27;;
11988;SDS011;6054;50.966;7.094;2023-04-06T11:14:53;12.20;;;9.52;;
11988;SDS011;6054;50.966;7.094;2023-04-06T11:17:25;12.57;;;9.88;;
11988;SDS011;6054;50.966;7.094;2023-04-06T11:19:52;13.85;;;10.13;;
11988;SDS011;6054;50.966;7.094;2023-04-06T11:22:20;14.15;;;9.90;;
11988;SDS011;6054;50.966;7.094;2023-04-06T11:24:47;13.20;;;9.80;;
11988;SDS011;6054;50.966;7.094;2023-04-06T11:27:15;14.77;;;9.32;;
11988;SDS011;6054;50.966;7.094;2023-04-06T11:29:43;12.52;;;10.00;;
11988;SDS011;6054;50.966;7.094;2023-04-06T11:32:19;12.20;;;10.05;;
11988;SDS011;6054;50.966;7.094;2023-04-06T11:34:47;13.13;;;9.35;;
11988;SDS011;6054;50.966;7.094;2023-04-06T11:37:14;12.65;;;10.23;;
11988;SDS011;6054;50.966;7.094;2023-04-06T11:39:43;18.00;;;10.23;;
11988;SDS011;6054;50.966;7.094;2023-04-06T11:42:20;14.55;;;10.45;;
11988;SDS011;6054;50.966;7.094;2023-04-06T11:44:49;11.60;;;9.50;;
11988;SDS011;6054;50.966;7.094;2023-04-06T11:47:17;15.55;;;10.90;;
11988;SDS011;6054;50.966;7.094;2023-04-06T11:49:45;17.92;;;10.43;;
11988;SDS011;6054;50.966;7.094;2023-04-06T11:52:14;15.18;;;10.68;;
11988;SDS011;6054;50.966;7.094;2023-04-06T11:54:44;14.93;;;10.52;;
11988;SDS011;6054;50.966;7.094;2023-04-06T11:57:11;13.57;;;9.93;;
11988;SDS011;6054;50.966;7.094;2023-04-06T11:59:38;14.00;;;10.52;;
11988;SDS011;6054;50.966;7.094;2023-04-06T12:02:05;15.35;;;9.80;;
11988;SDS011;6054;50.966;7.094;2023-04-06T12:04:32;14.70;;;11.05;;
11988;SDS011;6054;50.966;7.094;2023-04-06T12:06:59;14.65;;;10.80;;
11988;SDS011;6054;50.966;7.094;2023-04-06T12:09:26;14.15;;;10.23;;
11988;SDS011;6054;50.966;7.094;2023-04-06T12:11:54;14.45;;;9.68;;
11988;SDS011;6054;50.966;7.094;2023-04-06T12:14:21;13.15;;;9.18;;
11988;SDS011;6054;50.966;7.094;2023-04-06T12:16:48;13.13;;;10.25;;
11988;SDS011;6054;50.966;7.094;2023-04-06T12:19:15;14.52;;;9.82;;
11988;SDS011;6054;50.966;7.094;2023-04-06T12:21:42;13.57;;;9.73;;
11988;SDS011;6054;50.966;7.094;2023-04-06T12:24:09;14.05;;;10.10;;
11988;SDS011;6054;50.966;7.094;2023-04-06T12:26:36;14.25;;;9.93;;
11988;SDS011;6054;50.966;7.094;2023-04-06T12:29:04;12.45;;;8.73;;
11988;SDS011;6054;50.966;7.094;2023-04-06T12:31:33;13.32;;;9.35;;
11988;SDS011;6054;50.966;7.094;2023-04-06T12:34:01;13.52;;;9.73;;
11988;SDS011;6054;50.966;7.094;2023-04-06T12:36:29;12.23;;;9.35;;
11988;SDS011;6054;50.966;7.094;2023-04-06T12:38:56;12.20;;;8.45;;
11988;SDS011;6054;50.966;7.094;2023-04-06T12:41:23;16.20;;;11.05;;
11988;SDS011;6054;50.966;7.094;2023-04-06T12:43:50;12.50;;;9.68;;
11988;SDS011;6054;50.966;7.094;2023-04-06T12:46:18;15.52;;;11.15;;
11988;SDS011;6054;50.966;7.094;2023-04-06T12:48:45;9.35;;;6.70;;
11988;SDS011;6054;50.966;7.094;2023-04-06T12:51:12;10.05;;;6.22;;
11988;SDS011;6054;50.966;7.094;2023-04-06T12:53:39;10.98;;;9.10;;
11988;SDS011;6054;50.966;7.094;2023-04-06T12:56:11;9.38;;;6.50;;
11988;SDS011;6054;50.966;7.094;2023-04-06T12:58:38;8.68;;;6.32;;
11988;SDS011;6054;50.966;7.094;2023-04-06T13:01:06;8.35;;;6.35;;
11988;SDS011;6054;50.966;7.094;2023-04-06T13:03:35;7.18;;;5.75;;
11988;SDS011;6054;50.966;7.094;2023-04-06T13:06:02;7.82;;;5.80;;
11988;SDS011;6054;50.966;7.094;2023-04-06T13:08:29;6.15;;;5.47;;
11988;SDS011;6054;50.966;7.094;2023-04-06T13:10:56;10.05;;;9.10;;
11988;SDS011;6054;50.966;7.094;2023-04-06T13:13:24;8.75;;;6.80;;
11988;SDS011;6054;50.966;7.094;2023-04-06T13:15:52;7.30;;;6.53;;
11988;SDS011;6054;50.966;7.094;2023-04-06T13:18:20;6.50;;;5.80;;
11988;SDS011;6054;50.966;7.094;2023-04-06T13:20:49;9.65;;;7.00;;
11988;SDS011;6054;50.966;7.094;2023-04-06T13:23:16;7.03;;;6.18;;
11988;SDS011;6054;50.966;7.094;2023-04-06T13:25:42;8.57;;;6.18;;
11988;SDS011;6054;50.966;7.094;2023-04-06T13:28:09;11.63;;;9.05;;
11988;SDS011;6054;50.966;7.094;2023-04-06T13:30:36;7.30;;;6.47;;
11988;SDS011;6054;50.966;7.094;2023-04-06T13:33:04;6.90;;;6.00;;
11988;SDS011;6054;50.966;7.094;2023-04-06T13:35:31;6.95;;;5.15;;
11988;SDS011;6054;50.966;7.094;2023-04-06T13:37:59;7.68;;;5.97;;
11988;SDS011;6054;50.966;7.094;2023-04-06T13:40:26;8.05;;;6.45;;
11988;SDS011;6054;50.966;7.094;2023-04-06T13:42:53;9.10;;;7.47;;
11988;SDS011;6054;50.966;7.094;2023-04-06T13:45:20;7.40;;;6.63;;
11988;SDS011;6054;50.966;7.094;2023-04-06T13:47:47;7.00;;;5.95;;
11988;SDS011;6054;50.966;7.094;2023-04-06T13:50:14;8.80;;;6.70;;
11988;SDS011;6054;50.966;7.094;2023-04-06T13:52:41;9.50;;;7.13;;
11988;SDS011;6054;50.966;7.094;2023-04-06T13:55:09;8.07;;;6.88;;
11988;SDS011;6054;50.966;7.094;2023-04-06T13:57:36;8.50;;;6.97;;
11988;SDS011;6054;50.966;7.094;2023-04-06T14:00:03;7.88;;;7.07;;
11988;SDS011;6054;50.966;7.094;2023-04-06T14:02:31;9.23;;;6.88;;
11988;SDS011;6054;50.966;7.094;2023-04-06T14:04:58;7.53;;;6.57;;
11988;SDS011;6054;50.966;7.094;2023-04-06T14:07:25;8.77;;;5.82;;
11988;SDS011;6054;50.966;7.094;2023-04-06T14:09:51;5.85;;;5.20;;
11988;SDS011;6054;50.966;7.094;2023-04-06T14:12:20;5.82;;;4.90;;
11988;SDS011;6054;50.966;7.094;2023-04-06T14:14:46;11.30;;;5.43;;
11988;SDS011;6054;50.966;7.094;2023-04-06T14:17:13;6.70;;;5.03;;
11988;SDS011;6054;50.966;7.094;2023-04-06T14:19:40;9.05;;;6.22;;
11988;SDS011;6054;50.966;7.094;2023-04-06T14:22:08;10.40;;;6.13;;
11988;SDS011;6054;50.966;7.094;2023-04-06T14:24:35;8.52;;;6.10;;
11988;SDS011;6054;50.966;7.094;2023-04-06T14:27:02;7.57;;;6.00;;
11988;SDS011;6054;50.966;7.094;2023-04-06T14:29:30;8.48;;;6.65;;
11988;SDS011;6054;50.966;7.094;2023-04-06T14:31:57;10.30;;;8.73;;
11988;SDS011;6054;50.966;7.094;2023-04-06T14:34:25;7.90;;;6.88;;
11988;SDS011;6054;50.966;7.094;2023-04-06T14:36:52;6.85;;;5.75;;
11988;SDS011;6054;50.966;7.094;2023-04-06T14:39:19;6.55;;;5.85;;
11988;SDS011;6054;50.966;7.094;2023-04-06T14:41:46;9.05;;;5.28;;
11988;SDS011;6054;50.966;7.094;2023-04-06T14:44:13;8.23;;;5.45;;
11988;SDS011;6054;50.966;7.094;2023-04-06T14:46:42;7.75;;;5.70;;
11988;SDS011;6054;50.966;7.094;2023-04-06T14:49:09;6.35;;;4.95;;
11988;SDS011;6054;50.966;7.094;2023-04-06T14:51:36;7.28;;;5.03;;
11988;SDS011;6054;50.966;7.094;2023-04-06T14:54:02;7.40;;;5.18;;
11988;SDS011;6054;50.966;7.094;2023-04-06T14:56:30;7.57;;;5.07;;